x

New Dungeness - 17 Nm Ne Of Port Angeles, Wa (46088) Wave Buoy

12:50 - Tue 27th Jun 2017 All times are PDT. -7 hours from GMT.

  • Sig Wave height 1.6ft
  • Swell Direction
  • Peak Period 5s
  • Average Period 4s
  • Wind
    16mph, 20mph gusts
  • Sea Temp 51°f
  • Aire Temp 53°f
  • Sea Pressure 1014mb
  • New Dungeness - 17 Nm Ne Of Port Angeles, Wa
  • New Dungeness - 17 Nm Ne Of Port Angeles, Wa

More Historic Weather Station data

Upgrade to MSW Pro to gain access to the past 30 days of data for over 8000 Wavebouys and Weather Stations around the globe.

Join Pro

Comparision Forecast

View Surf forecast
   
mar 06/27 12:50 1.6ft 5s 4s 16 20 mph 1014mb 51f 53f
12:20 1.6ft 6s 4s 16 20 mph 1014mb 51f 53f
lun 06/26 11:50 2ft 4s 4s 18 20 mph 1013.9mb 51f 53f
11:20 2.5ft 4s 4s 16 20 mph 1014mb 51f 53f
10:50 2.5ft 4s 3s 16 20 mph 1014.3mb 51f 53f
10:20 2ft 3s 3s 20 25 mph 1014.1mb 51f 53f
9:50 2ft 3s 3s 20 25 mph 1013.7mb 51f 53f
9:20 2.5ft 4s 3s 20 22 mph 1013.4mb 51f 53f
8:50 3.5ft 4s 4s 22 25 mph 1012.9mb 51f 55f
8:20 3.5ft 4s 4s 22 27 mph 1012.4mb 52f 57f
7:50 3.5ft 3s 4s 27 31 mph 1011.5mb 51f 58f
7:20 3.5ft 4s 4s 27 36 mph 1011.5mb 51f 58f
6:50 3.5ft 4s 4s 29 31 mph 1011.5mb 51f 59f
6:20 3.5ft 4s 4s 25 29 mph 1011.8mb 51f 59f
5:50 3ft 4s 4s 11 16 mph 1012.3mb 51f 59f
5:20 3.5ft 4s 4s 16 20 mph 1012.2mb 51f 58f
4:50 3.5ft 5s 4s 20 22 mph 1012.3mb 51f 56f
4:20 4.5ft 8s 4s 22 27 mph 1012.2mb 51f 55f
3:50 4ft 5s 4s 22 27 mph 1012.5mb 51f 54f
3:20 3.5ft 4s 4s 25 27 mph 1012.5mb 51f 54f
2:50 3.5ft 8s 5s 22 27 mph 1012.7mb 51f 54f
2:20 3.5ft 8s 4s 18 22 mph 1013.3mb 51f 54f
1:50 2.5ft 8s 4s 20 25 mph 1013.3mb 51f 56f
1:20 2.5ft 6s 4s 18 22 mph 1013.4mb 51f 55f
12:50 2.5ft 6s 5s 13 16 mph 1013.6mb 51f 55f
12:20 2ft 6s 4s 18 20 mph 1013.7mb 52f 54f
11:50 2ft 6s 4s 16 18 mph 1013.4mb 51f 54f
11:20 2ft 6s 5s 16 18 mph 1013.2mb 51f 54f
10:50 2ft 5s 5s 16 20 mph 1013.4mb 51f 54f
10:20 1.6ft 6s 5s 16 18 mph 1013.2mb 51f 54f
9:50 2ft 5s 5s 13 16 mph 1013.4mb 51f 53f
9:20 2.5ft 6s 5s 18 20 mph 1013mb 51f 53f
8:50 2.5ft 5s 4s 18 22 mph 1013.1mb 51f 53f
8:20 2.5ft 5s 4s 13 16 mph 1012.8mb 50f 53f
7:50 3ft 5s 4s 16 18 mph 1012.6mb 50f 52f
7:20 2.5ft 5s 4s 16 20 mph 1012.6mb 50f 53f
6:50 2.5ft 5s 4s 22 27 mph 1012mb 50f 53f
6:20 3.5ft 5s 4s 20 22 mph 1012mb 50f 54f
5:50 3.5ft 5s 4s 20 27 mph 1011.9mb 50f 54f
5:20 3.5ft 5s 4s 29 34 mph 1011.2mb 50f 54f
4:50 3.5ft 5s 4s 27 34 mph 1010.9mb 50f 54f
4:20 2.5ft 5s 4s 25 29 mph 1010.6mb 51f 55f
3:50 2.5ft 4s 3s 27 34 mph 1010.3mb 51f 56f
3:20 2.5ft 4s 3s 25 29 mph 1010.4mb 51f 57f
2:50 2ft 4s 4s 22 27 mph 1009.8mb 51f 55f
2:20 2ft 4s 3s 18 20 mph 1009.9mb 51f 54f
1:50 1.6ft 4s 4s 16 18 mph 1010.2mb 51f 54f
1:20 2ft 4s 4s 16 16 mph 1010mb 51f 54f
12:50 2.5ft 4s 4s 7 9 mph 1009.9mb 51f 55f
12:20 2.5ft 5s 4s 13 13 mph 1009.5mb 51f 56f
dom 06/25 11:50 2.5ft 5s 4s 20 25 mph 1009.6mb 51f 56f
11:20 2.5ft 5s 4s 18 22 mph 1009mb 52f 58f
10:50 3ft 4s 4s 25 27 mph 1009.2mb 51f 58f
10:20 3.5ft 4s 4s 25 29 mph 1009mb 52f 58f
9:50 3.5ft 4s 4s 27 34 mph 1008.8mb 52f 57f
9:20 2.5ft 4s 4s 25 29 mph 1008.7mb 52f 56f
8:50 2.5ft 4s 3s 25 29 mph 1008.7mb 52f 56f
8:20 2.5ft 3s 3s 25 29 mph 1008.7mb 51f 55f
7:50 1.6ft 3s 3s 25 27 mph 1008.8mb 51f 55f
7:20 1.3ft 3s 3s 18 20 mph 1009.3mb 52f 55f
6:50 1ft 2s 3s 20 22 mph 1009.4mb 51f 55f
6:20 0.7ft  -  4s 18 22 mph 1009.5mb 52f 58f
5:50 0.3ft  -  5s 16 18 mph 1009.8mb 53f 58f
5:20 0.3ft  -  5s 13 16 mph 1010.3mb 53f 61f
4:50 0.3ft  -  4s 9 11 mph 1010.5mb 52f 59f
4:20 0.3ft  -  4s 9 11 mph 1010.6mb 53f -
3:50 0.3ft  -  4s 7 7 mph 1010.6mb 55f 68f
3:20 0.3ft  -  4s 4 7 mph 1011mb 53f 67f
2:50 0.3ft  -  4s 4 4 mph 1011.2mb 52f 67f
2:20 0.3ft  -  4s 4 7 mph 1011.4mb 52f 63f
1:50 0.7ft  -  4s 4 4 mph 1011.8mb 52f 64f
1:20 0.3ft  -  4s 4 7 mph 1012mb 53f 62f
12:50 0.7ft  -  4s 4 4 mph 1012.3mb 51f 60f
12:20 0.3ft  -  4s 4 7 mph 1012.5mb 51f 59f
11:50 0.3ft  -  4s 4 4 mph 1012.9mb 53f 60f
11:20 0.3ft  -  4s  -  2 mph 1013mb 53f 64f
10:50 0.3ft  -  4s  -  2 mph 1013mb 54f 61f
10:20 0.7ft  -  4s 2 2 mph 1013.3mb 53f 59f
9:50 0.3ft  -  4s 2 4 mph 1013.7mb 53f 57f
9:20 0.3ft  -  5s 2 4 mph 1013.7mb 53f 57f
8:50 0.3ft  -  4s 2 2 mph 1013.9mb 53f 58f
8:20 0.3ft  -  4s 4 4 mph 1013.8mb 53f 61f
7:50 0.3ft  -  4s 2 4 mph 1013.8mb 52f 58f
7:20 0.3ft  -  4s 2 4 mph 1013.8mb 51f 58f
6:50 0.3ft  -  5s 7 7 mph 1014mb 51f 57f
6:20 0.3ft  -  5s 4 4 mph 1013.9mb 51f 56f
5:50 0.3ft  -  4s 7 7 mph 1013.9mb 51f 58f
5:20 0.3ft  -  3s 2 4 mph 1013.8mb 51f 58f
4:50 0.3ft  -  4s  -  2 mph 1013.8mb 51f 57f
4:20 0.3ft  -  3s  -  2 mph 1013.8mb 51f 58f
3:50 0.3ft  -  4s 4 4 mph 1013.9mb 52f 58f
3:20 0.3ft  -  4s 4 4 mph 1014mb 51f 56f
2:50 0.3ft  -  4s 2 2 mph 1014.1mb 51f 57f
2:20 0.3ft  -  3s 2 2 mph 1014mb 52f 56f
1:50 0.3ft  -  4s 2 4 mph 1014.2mb 51f 58f
1:20 0.3ft  -  4s 2 4 mph 1014.4mb 51f 59f
12:50 0.3ft  -  4s 2 4 mph 1014.5mb 51f 58f
12:20 0.3ft  -  4s 4 4 mph 1014.5mb 51f 60f
sáb 06/24 11:50 0.3ft  -  4s 7 7 mph 1014.6mb 51f 60f
11:20 0.3ft  -  4s 7 7 mph 1014.7mb 51f 58f
10:50 0.3ft  -  4s 4 7 mph 1014.9mb 52f 57f
10:20 0.3ft  -  4s 7 7 mph 1015mb 53f 58f
9:50 0.3ft  -  4s 7 7 mph 1015mb 54f 58f
9:20 0.3ft  -  5s 7 9 mph 1014.9mb 54f 63f
8:50 0.7ft  -  5s 7 7 mph 1014.8mb 54f 70f
8:20 0.3ft  -  5s 7 7 mph 1015mb 54f 69f
7:50 0.3ft  -  4s 7 7 mph 1015.3mb 53f 69f
7:20 0.7ft  -  4s 4 7 mph 1015.5mb 52f 70f
6:50 0.7ft  -  4s 4 7 mph 1015.8mb 53f 70f
6:20 0.7ft  -  5s 7 7 mph 1016mb 53f 68f
5:50 0.7ft  -  4s 4 4 mph 1016.5mb 54f 69f
5:20 0.3ft  -  4s 7 7 mph 1016.9mb 54f 67f
4:50 0.3ft  -  5s 4 7 mph 1017.4mb 52f 67f
4:20 0.7ft  -  4s 7 9 mph 1017.7mb 53f 64f
3:50 0.7ft  -  5s 4 7 mph 1018.1mb 53f 66f
3:20 0.7ft  -  5s 4 4 mph 1018.5mb 53f 66f
2:50 0.7ft  -  5s 4 4 mph 1018.8mb 53f 64f
2:20 0.7ft  -  5s 4 4 mph 1019.2mb 52f 62f
1:50 0.7ft  -  5s 4 7 mph 1019.4mb 52f 63f
1:20 0.7ft  -  5s 2 4 mph 1019.7mb 51f 62f
12:50 1ft 8s 5s  -  0 mph 1020.1mb 52f 63f
12:20 0.7ft  -  4s 4 4 mph 1020.5mb 51f 58f
11:50 0.7ft  -  5s 2 2 mph 1020.5mb 51f 56f
11:20 0.7ft  -  5s 4 4 mph 1020.7mb 51f 56f
10:50 0.3ft  -  4s  -  0 mph 1020.8mb 53f 59f
10:20 0.3ft  -  5s 2 4 mph 1020.9mb 52f 57f
9:50 0.3ft  -  5s 2 4 mph 1021.2mb 52f 57f
9:20 0.3ft  -  4s 4 7 mph 1021.2mb 52f 59f
8:50 0.3ft  -  4s  -  2 mph 1021.4mb 52f 59f
8:20 0.3ft  -  4s  -  2 mph 1021.4mb 51f 58f
7:50 0.3ft  -  5s  -  2 mph 1021.4mb 51f 58f
7:20 0.3ft  -  4s 4 4 mph 1021.3mb 51f 57f
6:50 0.3ft  -  4s 2 4 mph 1021.1mb 51f 57f
6:20 0.3ft  -  5s  -  2 mph 1020.9mb 51f 56f
5:50 0.3ft  -  4s  -  0 mph 1020.8mb 51f 56f
5:20 0.3ft  -  5s 2 4 mph 1020.6mb 51f 54f
4:50 0.3ft  -  4s 2 2 mph 1020.5mb 50f 54f
4:20 0.3ft  -  4s 4 4 mph 1020.4mb 51f 54f
3:50 0.3ft  -  4s 4 7 mph 1020.4mb 51f 54f
3:20 0.3ft  -  4s 4 4 mph 1020.5mb 51f 54f
2:50 0.3ft  -  4s 4 7 mph 1020.3mb 51f 54f
2:20 0.3ft  -  4s 4 7 mph 1020.3mb 51f 54f
1:50 0.3ft  -  3s 4 7 mph 1020.3mb 51f 55f
1:20 0.7ft  -  4s 4 7 mph 1020.5mb 51f 54f
12:50 0.3ft  -  4s 4 7 mph 1020.4mb 51f 55f
12:20 0.3ft  -  4s 7 9 mph 1020.4mb 51f 55f
vie 06/23 11:50 0.3ft  -  4s 7 9 mph 1020.4mb 51f 54f
11:20 0.3ft  -  4s 7 9 mph 1020.5mb 51f 55f
10:50 0.3ft  -  4s 9 9 mph 1020.3mb 51f 55f
10:20 0.7ft  -  4s 7 9 mph 1020.4mb 52f 55f
9:50 0.3ft  -  4s 7 7 mph 1020.2mb 52f 55f
9:20 0.3ft  -  4s 7 7 mph 1020mb 53f 57f
8:50 0.7ft  -  5s 7 7 mph 1020.1mb 53f 59f
8:20 0.7ft  -  5s 7 7 mph 1020.1mb 52f 58f
7:50 0.7ft  -  5s 4 7 mph 1020.2mb 53f 57f
7:20 0.7ft  -  5s 7 7 mph 1020.4mb 53f 58f
6:50 0.7ft  -  4s 7 9 mph 1020.7mb 53f 64f
6:20 0.7ft  -  4s 7 7 mph 1020.7mb 53f 62f
5:50 0.7ft  -  4s 7 7 mph 1021mb 53f 65f
5:20 0.7ft  -  4s 7 7 mph 1021.2mb 52f 64f
4:50 0.3ft  -  4s 7 7 mph 1021.5mb 53f 64f
4:20 0.3ft  -  4s 7 9 mph 1021.8mb 53f 62f
3:50 0.3ft  -  4s 7 7 mph 1021.9mb 52f 60f
3:20 0.7ft  -  4s 4 4 mph 1022mb 53f 60f
2:50 1ft 6s 5s 2 4 mph 1022.3mb 54f 61f
2:20 1.3ft 7s 5s 2 4 mph 1022.4mb 53f 62f
1:50 1.6ft 7s 6s  -  2 mph 1022.6mb 53f 61f
1:20 1.3ft 7s 6s 4 4 mph 1022.8mb 53f 58f
12:50 1.3ft 8s 6s 4 4 mph 1022.9mb 52f 58f
12:20 1.3ft 8s 5s 2 2 mph 1023.2mb 53f 57f
11:50 1.3ft 8s 6s 2 2 mph 1023.4mb 51f 57f
11:20 1ft 8s 6s 2 4 mph 1023.6mb 51f 56f
10:50 1ft 9s 6s 2 2 mph 1023.8mb 51f 57f
10:20 1ft 8s 5s 2 2 mph 1023.8mb 51f 56f
9:50 0.7ft  -  6s 2 4 mph 1024.2mb 51f 54f
9:20 0.3ft  -  6s 2 2 mph 1024.3mb 51f 55f